^^

..:: Storico WU ::..




Lo storico viene creato da WUnderground con i dati che la stazione Meteomincio invia al loro server. L' aggiornamento viene fatto ogni 5 minuti circa, tuttavia possono esserci intervalli pił ampi a causa di errori, interruzioni di servizio o problemi nell' invio tramite FTP.


Storico stazione MeteoMincio
Giorno Sommario per Agosto 17, 2022 Unità:  Inglese    Metrico   Entrambi
Giorno Settimana Mese Anno
  Max: Min: Media:
Temperatura: 87.8 °F 69.8 °F 77.7 °F
Dew Point: 75.2 °F 66.2 °F 70.2 °F
Umidità: 92% 62% 78%
Velocità vento: 11.8mph 0mph 4.8mph
Raffica: 17.4mph - -
Direzione- - ESE
Pressione: 29.9 in 29.8 in -
Precipitazioni: 0.02 in    
 
 
Tabulato Dati per Agosto 17, 2022
Ora Temperatura Dew Point Pressione Direzione Velocità vento Raffica Umidità Intensità pioggia (oraria) Info solare Situazione
00:04 77 °F 69.8 °F 29.9 in ENE 3.7 mph 5 mph 78% 0 in 0.00 W/m2 unknown
00:09 77 °F 69.8 °F 29.9 in NE 5 mph 6.8 mph 79% 0 in 0.00 W/m2 unknown
00:14 77 °F 69.8 °F 29.9 in NE 5 mph 6.8 mph 79% 0 in 0.00 W/m2 unknown
00:19 75.2 °F 69.8 °F 29.9 in NE 4.3 mph 5 mph 80% 0 in 0.00 W/m2 unknown
00:24 75.2 °F 69.8 °F 29.9 in NE 5 mph 6.8 mph 80% 0 in 0.00 W/m2 unknown
00:29 75.2 °F 69.8 °F 29.9 in NE 6.2 mph 8.1 mph 81% 0 in 0.00 W/m2 unknown
00:34 75.2 °F 69.8 °F 29.9 in NE 5 mph 8.1 mph 81% 0 in 0.00 W/m2 unknown
00:39 75.2 °F 68 °F 29.9 in NE 6.2 mph 8.1 mph 81% 0 in 0.00 W/m2 unknown
00:44 75.2 °F 68 °F 29.9 in NE 6.2 mph 8.1 mph 81% 0 in 0.00 W/m2 unknown
00:49 75.2 °F 68 °F 29.9 in ENE 5 mph 8.1 mph 82% 0 in 0.00 W/m2 unknown
00:54 75.2 °F 68 °F 29.9 in ENE 6.2 mph 8.1 mph 82% 0 in 0.00 W/m2 unknown
00:59 73.4 °F 68 °F 29.9 in ENE 6.2 mph 8.1 mph 82% 0 in 0.00 W/m2 unknown
01:04 73.4 °F 68 °F 29.9 in ENE 6.2 mph 8.1 mph 83% 0 in 0.00 W/m2 unknown
01:09 73.4 °F 68 °F 29.9 in NE 5 mph 6.8 mph 83% 0 in 0.00 W/m2 unknown
01:14 73.4 °F 68 °F 29.9 in NE 5 mph 6.8 mph 83% 0 in 0.00 W/m2 unknown
01:19 73.4 °F 68 °F 29.9 in NE 6.8 mph 9.3 mph 83% 0 in 0.00 W/m2 unknown
01:24 73.4 °F 68 °F 29.9 in ENE 5 mph 8.7 mph 83% 0 in 0.00 W/m2 unknown
01:29 73.4 °F 68 °F 29.9 in ENE 5 mph 6.8 mph 83% 0 in 0.00 W/m2 unknown
01:34 73.4 °F 68 °F 29.9 in ENE 6.2 mph 8.1 mph 83% 0 in 0.00 W/m2 unknown
01:39 73.4 °F 68 °F 29.9 in ENE 5.6 mph 8.1 mph 83% 0 in 0.00 W/m2 unknown
01:44 73.4 °F 68 °F 29.9 in ENE 3.1 mph 5 mph 84% 0 in 0.00 W/m2 unknown
01:49 73.4 °F 68 °F 29.9 in ENE 3.1 mph 3.7 mph 84% 0 in 0.00 W/m2 unknown
01:54 73.4 °F 68 °F 29.9 in ENE 3.7 mph 5 mph 84% 0 in 0.00 W/m2 unknown
01:59 73.4 °F 68 °F 29.9 in ENE 3.7 mph 5 mph 84% 0 in 0.00 W/m2 unknown
02:04 73.4 °F 68 °F 29.9 in NE 3.7 mph 5 mph 84% 0 in 0.00 W/m2 unknown
02:09 73.4 °F 68 °F 29.9 in NE 3.7 mph 5 mph 84% 0 in 0.00 W/m2 unknown
02:14 73.4 °F 68 °F 29.9 in ENE 4.3 mph 5 mph 84% 0 in 0.00 W/m2 unknown
02:19 73.4 °F 68 °F 29.9 in ENE 5 mph 6.8 mph 84% 0 in 0.00 W/m2 unknown
02:24 73.4 °F 68 °F 29.9 in ENE 5 mph 6.8 mph 84% 0 in 0.00 W/m2 unknown
02:29 73.4 °F 68 °F 29.9 in ENE 5 mph 6.8 mph 84% 0 in 0.00 W/m2 unknown
02:34 73.4 °F 68 °F 29.9 in ENE 5 mph 6.8 mph 84% 0 in 0.00 W/m2 unknown
02:39 73.4 °F 68 °F 29.9 in ENE 1.9 mph 2.5 mph 84% 0 in 0.00 W/m2 unknown
02:44 73.4 °F 68 °F 29.9 in Calm   1.9 mph 84% 0 in 0.00 W/m2 unknown
02:49 71.6 °F 68 °F 29.9 in ENE 3.1 mph 3.7 mph 85% 0 in 0.00 W/m2 unknown
02:54 71.6 °F 68 °F 29.9 in ENE 2.5 mph 3.7 mph 85% 0 in 0.00 W/m2 unknown
02:59 71.6 °F 68 °F 29.9 in ENE 1.9 mph 3.7 mph 85% 0 in 0.00 W/m2 unknown
03:04 71.6 °F 68 °F 29.9 in ENE 2.5 mph 3.7 mph 85% 0 in 0.00 W/m2 unknown
03:09 71.6 °F 68 °F 29.9 in ENE 1.9 mph 3.7 mph 85% 0 in 0.00 W/m2 unknown
03:14 71.6 °F 68 °F 29.9 in ENE 1.2 mph 3.1 mph 85% 0 in 0.00 W/m2 unknown
03:19 71.6 °F 68 °F 29.9 in Calm   1.9 mph 85% 0 in 0.00 W/m2 unknown
03:24 71.6 °F 68 °F 29.9 in Calm     85% 0 in 0.00 W/m2 unknown
03:29 71.6 °F 68 °F 29.9 in Calm     85% 0 in 0.00 W/m2 unknown
03:34 71.6 °F 68 °F 29.9 in Calm     85% 0 in 0.00 W/m2 unknown
03:39 71.6 °F 68 °F 29.9 in East 1.2 mph 3.1 mph 85% 0 in 0.00 W/m2 unknown
03:44 71.6 °F 66.2 °F 29.9 in East 3.1 mph 5 mph 85% 0 in 0.00 W/m2 unknown
03:49 71.6 °F 66.2 °F 29.9 in East 3.1 mph 5 mph 85% 0 in 0.00 W/m2 unknown
03:54 71.6 °F 66.2 °F 29.9 in East 3.1 mph 5 mph 84% 0 in 0.00 W/m2 unknown
03:59 71.6 °F 66.2 °F 29.9 in East 2.5 mph 5 mph 83% 0 in 0.00 W/m2 unknown
04:04 71.6 °F 66.2 °F 29.9 in ENE 3.1 mph 5 mph 83% 0 in 0.00 W/m2 unknown
04:09 71.6 °F 66.2 °F 29.9 in ENE 3.1 mph 5 mph 83% 0 in 0.00 W/m2 unknown
04:14 71.6 °F 66.2 °F 29.9 in East 2.5 mph 5 mph 83% 0 in 0.00 W/m2 unknown
04:19 71.6 °F 66.2 °F 29.9 in ENE 3.1 mph 5 mph 83% 0 in 0.00 W/m2 unknown
04:24 71.6 °F 66.2 °F 29.9 in ENE 3.1 mph 5 mph 82% 0 in 0.00 W/m2 unknown
04:29 71.6 °F 66.2 °F 29.9 in ENE 1.9 mph 5 mph 83% 0 in 0.00 W/m2 unknown
04:34 71.6 °F 66.2 °F 29.9 in East 2.5 mph 3.7 mph 83% 0 in 0.00 W/m2 unknown
04:39 71.6 °F 66.2 °F 29.9 in East 2.5 mph 3.7 mph 83% 0 in 0.00 W/m2 unknown
04:44 71.6 °F 66.2 °F 29.9 in East 3.1 mph 5 mph 83% 0 in 0.00 W/m2 unknown
04:49 71.6 °F 66.2 °F 29.9 in East 3.1 mph 5 mph 84% 0 in 0.00 W/m2 unknown
04:54 71.6 °F 66.2 °F 29.9 in East 3.1 mph 5 mph 84% 0 in 0.00 W/m2 unknown
04:59 69.8 °F 66.2 °F 29.9 in East 2.5 mph 5 mph 84% 0 in 0.00 W/m2 unknown
05:04 71.6 °F 66.2 °F 29.9 in East 3.7 mph 5 mph 84% 0 in 0.00 W/m2 unknown
05:09 71.6 °F 66.2 °F 29.9 in ENE 5 mph 6.2 mph 83% 0 in 0.00 W/m2 unknown
05:14 69.8 °F 66.2 °F 29.9 in ENE 5 mph 6.2 mph 84% 0 in 0.00 W/m2 unknown
05:19 69.8 °F 66.2 °F 29.9 in ENE 5 mph 6.2 mph 84% 0 in 0.00 W/m2 unknown
05:24 69.8 °F 66.2 °F 29.9 in East 5 mph 8.1 mph 84% 0 in 0.00 W/m2 unknown
05:29 69.8 °F 66.2 °F 29.9 in East 4.3 mph 8.1 mph 84% 0 in 0.00 W/m2 unknown
05:34 69.8 °F 66.2 °F 29.9 in East 5 mph 6.8 mph 84% 0 in 0.00 W/m2 unknown
05:39 69.8 °F 66.2 °F 29.9 in ENE 5.6 mph 6.8 mph 84% 0 in 0.00 W/m2 unknown
05:44 69.8 °F 66.2 °F 29.9 in ENE 3.7 mph 6.8 mph 84% 0 in 0.00 W/m2 unknown
05:49 69.8 °F 66.2 °F 29.9 in East 3.1 mph 6.2 mph 84% 0 in 0.00 W/m2 unknown
05:54 69.8 °F 66.2 °F 29.9 in East 3.7 mph 5 mph 84% 0 in 0.00 W/m2 unknown
05:59 69.8 °F 66.2 °F 29.9 in ENE 4.3 mph 6.8 mph 85% 0 in 0.00 W/m2 unknown
06:04 69.8 °F 66.2 °F 29.9 in East 5 mph 6.8 mph 85% 0 in 0.00 W/m2 unknown
06:09 69.8 °F 66.2 °F 29.9 in ENE 6.2 mph 9.3 mph 85% 0 in 0.00 W/m2 unknown
06:14 69.8 °F 66.2 °F 29.9 in ENE 6.2 mph 8.7 mph 84% 0 in 0.00 W/m2 unknown
06:19 69.8 °F 66.2 °F 29.9 in ENE 5.6 mph 8.1 mph 84% 0 in 0.00 W/m2 unknown
06:24 69.8 °F 66.2 °F 29.9 in ENE 6.2 mph 8.1 mph 84% 0 in 0.00 W/m2 unknown
06:29 69.8 °F 66.2 °F 29.9 in ENE 5 mph 6.8 mph 84% 0 in 5.00 W/m2 unknown
06:34 69.8 °F 66.2 °F 29.9 in East 4.3 mph 6.2 mph 84% 0 in 9.00 W/m2 unknown
06:39 69.8 °F 66.2 °F 29.9 in East 3.1 mph 6.2 mph 84% 0 in 12.00 W/m2 unknown
06:44 69.8 °F 66.2 °F 29.9 in ENE 5 mph 8.1 mph 84% 0 in 14.00 W/m2 unknown
06:49 69.8 °F 66.2 °F 29.9 in ENE 5 mph 8.1 mph 84% 0 in 18.00 W/m2 unknown
06:54 69.8 °F 66.2 °F 29.9 in ENE 5 mph 8.1 mph 84% 0 in 21.00 W/m2 unknown
06:59 69.8 °F 66.2 °F 29.9 in East 2.5 mph 6.2 mph 84% 0 in 23.00 W/m2 unknown
07:04 71.6 °F 66.2 °F 29.9 in East 2.5 mph 6.2 mph 85% 0 in 28.00 W/m2 unknown
07:05 71.6 °F 66.2 °F 29.9 in East 3.1 mph 6.2 mph 84% 0 in 28.00 W/m2 unknown
07:14 71.6 °F 66.2 °F 29.9 in East 2.5 mph 6.2 mph 84% 0 in 40.00 W/m2 unknown
07:19 71.6 °F 66.2 °F 29.9 in East 2.5 mph 5 mph 84% 0 in 51.00 W/m2 unknown
07:24 71.6 °F 66.2 °F 29.9 in East 2.5 mph 3.7 mph 84% 0 in 56.00 W/m2 unknown
07:29 71.6 °F 66.2 °F 29.9 in ESE 2.5 mph 3.7 mph 84% 0 in 88.00 W/m2 unknown
07:34 73.4 °F 68 °F 29.9 in ENE 2.5 mph 3.7 mph 84% 0 in 107.00 W/m2 unknown
07:39 73.4 °F 68 °F 29.9 in ENE 3.1 mph 5 mph 83% 0 in 114.00 W/m2 unknown
07:44 73.4 °F 68 °F 29.9 in ENE 2.5 mph 5 mph 83% 0 in 144.00 W/m2 unknown
07:49 73.4 °F 68 °F 29.9 in ENE 1.9 mph 5 mph 83% 0 in 174.00 W/m2 unknown
07:54 73.4 °F 68 °F 29.9 in East 3.1 mph 3.7 mph 83% 0 in 174.00 W/m2 unknown
07:59 73.4 °F 68 °F 29.9 in East 3.1 mph 5 mph 83% 0 in 174.00 W/m2 unknown
08:04 75.2 °F 68 °F 29.9 in ESE 3.7 mph 5 mph 83% 0 in 213.00 W/m2 unknown
08:05 75.2 °F 68 °F 29.9 in ESE 2.5 mph 5 mph 82% 0 in 218.00 W/m2 unknown
08:14 75.2 °F 69.8 °F 29.9 in East 3.7 mph 6.2 mph 83% 0 in 234.00 W/m2 unknown
08:19 75.2 °F 69.8 °F 29.9 in East 4.3 mph 6.2 mph 83% 0 in 234.00 W/m2 unknown
08:24 75.2 °F 69.8 °F 29.9 in East 4.3 mph 6.2 mph 82% 0 in 244.00 W/m2 unknown
08:29 75.2 °F 69.8 °F 29.9 in East 5.6 mph 8.1 mph 82% 0 in 253.00 W/m2 unknown
08:34 77 °F 69.8 °F 29.9 in ENE 5 mph 8.1 mph 82% 0 in 279.00 W/m2 unknown
08:39 77 °F 69.8 °F 29.9 in ENE 4.3 mph 8.1 mph 82% 0 in 279.00 W/m2 unknown
08:44 77 °F 69.8 °F 29.9 in ENE 6.8 mph 8.1 mph 82% 0 in 258.00 W/m2 unknown
08:49 77 °F 69.8 °F 29.9 in ENE 6.8 mph 8.1 mph 82% 0 in 304.00 W/m2 unknown
08:54 77 °F 71.6 °F 29.9 in ENE 6.2 mph 8.1 mph 81% 0 in 309.00 W/m2 unknown
08:59 77 °F 71.6 °F 29.9 in ENE 5.6 mph 9.3 mph 80% 0 in 320.00 W/m2 unknown
09:04 78.8 °F 71.6 °F 29.9 in ENE 8.1 mph 10.6 mph 80% 0 in 334.00 W/m2 unknown
09:09 78.8 °F 71.6 °F 29.9 in ENE 6.8 mph 10.6 mph 80% 0 in 348.00 W/m2 unknown
09:14 78.8 °F 73.4 °F 29.9 in East 7.5 mph 9.9 mph 81% 0 in 369.00 W/m2 unknown
09:19 78.8 °F 71.6 °F 29.9 in East 6.8 mph 9.3 mph 81% 0 in 390.00 W/m2 unknown
09:24 78.8 °F 71.6 °F 29.9 in East 8.1 mph 11.8 mph 81% 0 in 410.00 W/m2 unknown
09:29 78.8 °F 71.6 °F 29.9 in East 8.7 mph 11.8 mph 80% 0 in 439.00 W/m2 unknown
09:34 78.8 °F 73.4 °F 29.9 in ENE 7.5 mph 11.8 mph 80% 0 in 439.00 W/m2 unknown
09:39 80.6 °F 73.4 °F 29.9 in ENE 7.5 mph 9.9 mph 80% 0 in 408.00 W/m2 unknown
09:44 80.6 °F 73.4 °F 29.9 in East 8.7 mph 13 mph 79% 0 in 441.00 W/m2 unknown
09:49 80.6 °F 73.4 °F 29.9 in ENE 8.1 mph 13 mph 79% 0 in 448.00 W/m2 unknown
09:54 80.6 °F 73.4 °F 29.9 in ENE 7.5 mph 9.9 mph 80% 0 in 589.00 W/m2 unknown
09:59 80.6 °F 73.4 °F 29.9 in East 7.5 mph 10.6 mph 80% 0 in 589.00 W/m2 unknown
10:04 80.6 °F 73.4 °F 29.9 in East 7.5 mph 10.6 mph 80% 0 in 577.00 W/m2 unknown
10:09 80.6 °F 73.4 °F 29.9 in ENE 6.2 mph 9.9 mph 80% 0 in 504.00 W/m2 unknown
10:14 80.6 °F 75.2 °F 29.9 in East 5.6 mph 11.2 mph 81% 0 in 496.00 W/m2 unknown
10:19 80.6 °F 73.4 °F 29.9 in ESE 6.8 mph 11.8 mph 78% 0 in 534.00 W/m2 unknown
10:24 80.6 °F 73.4 °F 29.9 in ESE 6.8 mph 11.8 mph 80% 0 in 534.00 W/m2 unknown
10:29 80.6 °F 73.4 °F 29.9 in East 6.8 mph 8.7 mph 78% 0 in 615.00 W/m2 unknown
10:34 82.4 °F 73.4 °F 29.9 in East 6.2 mph 8.1 mph 77% 0 in 615.00 W/m2 unknown
10:39 82.4 °F 73.4 °F 29.9 in East 5.6 mph 8.1 mph 77% 0 in 578.00 W/m2 unknown
10:44 82.4 °F 73.4 °F 29.9 in East 6.8 mph 9.3 mph 75% 0 in 582.00 W/m2 unknown
10:49 82.4 °F 73.4 °F 29.9 in East 6.2 mph 8.7 mph 74% 0 in 650.00 W/m2 unknown
10:54 82.4 °F 71.6 °F 29.9 in East 9.3 mph 11.8 mph 72% 0 in 679.00 W/m2 unknown
10:59 82.4 °F 73.4 °F 29.9 in ESE 6.2 mph 8.1 mph 72% 0 in 693.00 W/m2 unknown
11:04 82.4 °F 73.4 °F 29.9 in East 6.2 mph 9.3 mph 72% 0 in 615.00 W/m2 unknown
11:09 82.4 °F 71.6 °F 29.9 in ESE 9.9 mph 11.8 mph 70% 0 in 587.00 W/m2 unknown
11:14 84.2 °F 71.6 °F 29.9 in ENE 5.6 mph 11.8 mph 70% 0 in 631.00 W/m2 unknown
11:19 84.2 °F 71.6 °F 29.9 in ENE 6.2 mph 9.3 mph 69% 0 in 631.00 W/m2 unknown
11:24 84.2 °F 71.6 °F 29.9 in ENE 6.2 mph 9.3 mph 69% 0 in 647.00 W/m2 unknown
11:29 84.2 °F 73.4 °F 29.9 in East 6.8 mph 8.7 mph 70% 0 in 654.00 W/m2 unknown
11:34 84.2 °F 71.6 °F 29.9 in East 6.2 mph 9.3 mph 69% 0 in 700.00 W/m2 unknown
11:39 84.2 °F 71.6 °F 29.9 in East 6.8 mph 10.6 mph 69% 0 in 715.00 W/m2 unknown
11:44 84.2 °F 73.4 °F 29.9 in ESE 8.7 mph 13 mph 69% 0 in 668.00 W/m2 unknown
11:49 84.2 °F 73.4 °F 29.9 in ENE 8.1 mph 13 mph 69% 0 in 717.00 W/m2 unknown
11:54 84.2 °F 73.4 °F 29.9 in ENE 6.8 mph 9.9 mph 69% 0 in 647.00 W/m2 unknown
11:59 84.2 °F 73.4 °F 29.9 in ENE 5 mph 8.1 mph 69% 0 in 636.00 W/m2 unknown
12:04 84.2 °F 73.4 °F 29.9 in East 6.2 mph 8.1 mph 68% 0 in 548.00 W/m2 unknown
12:09 84.2 °F 73.4 °F 29.9 in East 6.8 mph 9.3 mph 67% 0 in 490.00 W/m2 unknown
12:14 84.2 °F 73.4 °F 29.9 in East 6.2 mph 8.7 mph 68% 0 in 526.00 W/m2 unknown
12:19 84.2 °F 73.4 °F 29.9 in East 6.2 mph 9.3 mph 68% 0 in 522.00 W/m2 unknown
12:24 84.2 °F 71.6 °F 29.9 in ESE 5 mph 8.7 mph 67% 0 in 520.00 W/m2 unknown
12:29 84.2 °F 71.6 °F 29.9 in ESE 3.7 mph 6.8 mph 67% 0 in 508.00 W/m2 unknown
12:34 84.2 °F 73.4 °F 29.9 in ESE 3.1 mph 6.2 mph 68% 0 in 513.00 W/m2 unknown
12:39 84.2 °F 71.6 °F 29.9 in East 5 mph 6.2 mph 67% 0 in 550.00 W/m2 unknown
12:44 84.2 °F 71.6 °F 29.9 in East 5 mph 6.8 mph 67% 0 in 550.00 W/m2 unknown
12:49 84.2 °F 73.4 °F 29.9 in ESE 5 mph 6.8 mph 67% 0 in 545.00 W/m2 unknown
12:54 84.2 °F 71.6 °F 29.9 in East 5.6 mph 6.8 mph 66% 0 in 564.00 W/m2 unknown
12:59 84.2 °F 71.6 °F 29.9 in East 5.6 mph 8.1 mph 66% 0 in 570.00 W/m2 unknown
13:04 86 °F 71.6 °F 29.9 in ENE 5 mph 8.7 mph 66% 0 in 561.00 W/m2 unknown
13:09 86 °F 71.6 °F 29.9 in East 6.2 mph 9.3 mph 66% 0 in 410.00 W/m2 unknown
13:14 84.2 °F 73.4 °F 29.9 in East 6.2 mph 8.7 mph 67% 0 in 397.00 W/m2 unknown
13:19 84.2 °F 73.4 °F 29.9 in ENE 6.2 mph 6.8 mph 67% 0 in 385.00 W/m2 unknown
13:24 86 °F 73.4 °F 29.9 in ENE 6.8 mph 8.1 mph 67% 0 in 381.00 W/m2 unknown
13:29 86 °F 73.4 °F 29.9 in ENE 6.8 mph 8.1 mph 66% 0 in 357.00 W/m2 unknown
13:34 86 °F 73.4 °F 29.9 in ESE 5 mph 8.1 mph 67% 0 in 357.00 W/m2 unknown
13:39 86 °F 73.4 °F 29.9 in East 4.3 mph 6.8 mph 67% 0 in 359.00 W/m2 unknown
13:44 86 °F 73.4 °F 29.9 in ESE 3.7 mph 6.8 mph 67% 0 in 373.00 W/m2 unknown
13:49 86 °F 73.4 °F 29.9 in East 3.1 mph 6.8 mph 67% 0 in 378.00 W/m2 unknown
13:54 86 °F 73.4 °F 29.9 in ESE 4.3 mph 5 mph 67% 0 in 406.00 W/m2 unknown
13:59 86 °F 73.4 °F 29.9 in East 5 mph 6.8 mph 67% 0 in 473.00 W/m2 unknown
14:04 86 °F 73.4 °F 29.9 in ENE 5 mph 6.8 mph 67% 0 in 564.00 W/m2 unknown
14:09 86 °F 73.4 °F 29.9 in SE 4.3 mph 6.8 mph 66% 0 in 550.00 W/m2 unknown
14:14 86 °F 73.4 °F 29.9 in East 6.2 mph 6.8 mph 66% 0 in 420.00 W/m2 unknown
14:19 86 °F 71.6 °F 29.9 in East 6.2 mph 6.8 mph 64% 0 in 436.00 W/m2 unknown
14:24 86 °F 73.4 °F 29.9 in ENE 3.7 mph 6.8 mph 65% 0 in 385.00 W/m2 unknown
14:29 86 °F 73.4 °F 29.9 in East 4.3 mph 6.2 mph 66% 0 in 396.00 W/m2 unknown
14:34 86 °F 73.4 °F 29.9 in ESE 3.1 mph 6.2 mph 66% 0 in 473.00 W/m2 unknown
14:39 86 °F 73.4 °F 29.9 in NE 2.5 mph 5 mph 66% 0 in 473.00 W/m2 unknown
14:44 86 °F 73.4 °F 29.9 in SE 2.5 mph 3.7 mph 66% 0 in 302.00 W/m2 unknown
14:49 86 °F 73.4 °F 29.9 in East 2.5 mph 3.7 mph 66% 0 in 373.00 W/m2 unknown
14:54 86 °F 73.4 °F 29.9 in ENE 2.5 mph 3.7 mph 65% 0 in 561.00 W/m2 unknown
14:59 86 °F 73.4 °F 29.9 in NNE 3.7 mph 5 mph 65% 0 in 520.00 W/m2 unknown
15:04 87.8 °F 75.2 °F 29.9 in North 3.7 mph 5 mph 65% 0 in 814.00 W/m2 unknown
15:09 87.8 °F 73.4 °F 29.9 in NE 3.1 mph 5 mph 63% 0 in 782.00 W/m2 unknown
15:14 87.8 °F 73.4 °F 29.9 in North 2.5 mph 5 mph 64% 0 in 853.00 W/m2 unknown
15:19 87.8 °F 73.4 °F 29.9 in ENE 2.5 mph 3.7 mph 63% 0 in 853.00 W/m2 unknown
15:24 87.8 °F 73.4 °F 29.9 in NNE 3.1 mph 6.2 mph 63% 0 in 784.00 W/m2 unknown
15:29 87.8 °F 73.4 °F 29.9 in SE 3.7 mph 6.2 mph 62% 0 in 666.00 W/m2 unknown
15:34 87.8 °F 73.4 °F 29.9 in East 3.7 mph 6.2 mph 63% 0 in 540.00 W/m2 unknown
15:39 87.8 °F 73.4 °F 29.9 in NE 5 mph 6.8 mph 63% 0 in 469.00 W/m2 unknown
15:44 87.8 °F 73.4 °F 29.9 in NNE 3.7 mph 6.8 mph 63% 0 in 241.00 W/m2 unknown
15:49 86 °F 73.4 °F 29.9 in NE 4.3 mph 6.2 mph 63% 0 in 186.00 W/m2 unknown
15:54 86 °F 73.4 °F 29.9 in ENE 5 mph 6.2 mph 64% 0 in 218.00 W/m2 unknown
15:59 86 °F 73.4 °F 29.9 in NNE 5 mph 6.2 mph 65% 0 in 218.00 W/m2 unknown
16:04 86 °F 73.4 °F 29.9 in North 3.1 mph 6.2 mph 65% 0 in 190.00 W/m2 unknown
16:09 86 °F 73.4 °F 29.9 in North 4.3 mph 5 mph 66% 0 in 162.00 W/m2 unknown
16:14 86 °F 73.4 °F 29.9 in North 3.1 mph 6.2 mph 64% 0 in 132.00 W/m2 unknown
16:19 86 °F 73.4 °F 29.9 in North 3.7 mph 6.2 mph 65% 0 in 123.00 W/m2 unknown
16:24 86 °F 73.4 °F 29.9 in North 3.1 mph 6.2 mph 65% 0 in 98.00 W/m2 unknown
16:29 86 °F 73.4 °F 29.9 in NNW 2.5 mph 3.7 mph 64% 0 in 84.00 W/m2 unknown
16:39 86 °F 75.2 °F 29.9 in North 5.6 mph 6.8 mph 69% 0 in 225.00 W/m2 unknown
16:44 86 °F 75.2 °F 29.9 in North 5 mph 6.8 mph 69% 0 in 216.00 W/m2 unknown
16:49 86 °F 75.2 °F 29.9 in North 4.3 mph 6.2 mph 69% 0 in 190.00 W/m2 unknown
16:54 86 °F 73.4 °F 29.9 in NNW 5 mph 6.2 mph 68% 0 in 190.00 W/m2 unknown
16:59 86 °F 73.4 °F 29.9 in NW 5 mph 6.2 mph 66% 0 in 218.00 W/m2 unknown
17:04 86 °F 73.4 °F 29.9 in NNW 5 mph 6.8 mph 65% 0 in 269.00 W/m2 unknown
17:09 86 °F 73.4 °F 29.8 in NNW 5 mph 6.8 mph 66% 0 in 269.00 W/m2 unknown
17:14 86 °F 73.4 °F 29.8 in North 4.3 mph 6.8 mph 65% 0 in 287.00 W/m2 unknown
17:19 86 °F 73.4 °F 29.8 in North 5.6 mph 6.8 mph 64% 0 in 325.00 W/m2 unknown
17:24 86 °F 73.4 °F 29.8 in North 5.6 mph 6.8 mph 65% 0 in 213.00 W/m2 unknown
17:29 86 °F 73.4 °F 29.8 in North 5.6 mph 6.8 mph 65% 0 in 253.00 W/m2 unknown
17:34 86 °F 73.4 °F 29.8 in NNW 5 mph 6.8 mph 64% 0 in 193.00 W/m2 unknown
17:39 86 °F 73.4 °F 29.8 in North 3.1 mph 5 mph 64% 0 in 155.00 W/m2 unknown
17:44 86 °F 71.6 °F 29.8 in NNW 3.1 mph 5 mph 63% 0 in 132.00 W/m2 unknown
17:49 86 °F 73.4 °F 29.8 in NNW 3.1 mph 3.7 mph 64% 0 in 95.00 W/m2 unknown
17:54 86 °F 71.6 °F 29.9 in NW 3.7 mph 5 mph 64% 0 in 74.00 W/m2 unknown
17:59 86 °F 71.6 °F 29.9 in WNW 3.7 mph 5 mph 63% 0 in 40.00 W/m2 unknown
18:04 86 °F 71.6 °F 29.9 in WNW 4.3 mph 5 mph 64% 0 in 40.00 W/m2 unknown
18:09 86 °F 71.6 °F 29.9 in WNW 4.3 mph 6.2 mph 64% 0 in 53.00 W/m2 unknown
18:14 86 °F 71.6 °F 29.9 in WNW 4.3 mph 4.3 mph 65% 0 in 77.00 W/m2 unknown
18:19 84.2 °F 71.6 °F 29.9 in WNW 5 mph 8.1 mph 65% 0 in 104.00 W/m2 unknown
18:24 84.2 °F 71.6 °F 29.8 in NW 3.7 mph 5 mph 65% 0 in 105.00 W/m2 unknown
18:29 86 °F 71.6 °F 29.8 in NW 4.3 mph 6.2 mph 65% 0 in 102.00 W/m2 unknown
18:34 86 °F 71.6 °F 29.8 in NW 5 mph 6.8 mph 64% 0 in 86.00 W/m2 unknown
18:39 86 °F 71.6 °F 29.8 in WNW 6.8 mph 9.3 mph 64% 0 in 72.00 W/m2 unknown
18:44 84.2 °F 71.6 °F 29.8 in WNW 6.8 mph 8.7 mph 65% 0 in 56.00 W/m2 unknown
18:49 84.2 °F 71.6 °F 29.8 in WNW 6.2 mph 8.1 mph 65% 0 in 40.00 W/m2 unknown
18:54 84.2 °F 71.6 °F 29.8 in WNW 7.5 mph 9.3 mph 65% 0 in 28.00 W/m2 unknown
18:59 84.2 °F 71.6 °F 29.8 in WNW 7.5 mph 9.3 mph 65% 0 in 12.00 W/m2 unknown
19:04 84.2 °F 71.6 °F 29.9 in West 6.8 mph 9.3 mph 66% 0 in 7.00 W/m2 unknown
19:09 84.2 °F 71.6 °F 29.9 in West 6.8 mph 9.9 mph 67% 0 in 5.00 W/m2 unknown
19:14 82.4 °F 71.6 °F 29.9 in West 9.3 mph 14.3 mph 67% 0 in 0.00 W/m2 unknown
19:19 82.4 °F 71.6 °F 29.9 in West 8.1 mph 14.3 mph 68% 0 in 0.00 W/m2 unknown
19:24 82.4 °F 71.6 °F 29.9 in West 8.7 mph 13 mph 72% 0 in 0.00 W/m2 unknown
19:29 82.4 °F 71.6 °F 29.9 in West 8.1 mph 13 mph 76% 0 in 0.00 W/m2 unknown
19:34 80.6 °F 71.6 °F 29.9 in SW 6.2 mph 11.8 mph 78% 0.01 in 0.00 W/m2 unknown
19:39 78.8 °F 73.4 °F 29.9 in SSW 5 mph 8.1 mph 80% 0.01 in 0.00 W/m2 unknown
19:44 78.8 °F 73.4 °F 29.9 in South 4.3 mph 6.2 mph 83% 0.02 in 0.00 W/m2 unknown
19:49 78.8 °F 73.4 °F 29.8 in SE 8.7 mph 11.8 mph 85% 0.02 in 0.00 W/m2 unknown
19:54 77 °F 71.6 °F 29.8 in ESE 8.7 mph 11.8 mph 87% 0.02 in 0.00 W/m2 unknown
19:59 75.2 °F 71.6 °F 29.8 in SE 8.1 mph 11.8 mph 88% 0.02 in 0.00 W/m2 unknown
20:04 75.2 °F 71.6 °F 29.8 in ESE 8.7 mph 11.8 mph 89% 0.02 in 5.00 W/m2 unknown
20:09 75.2 °F 71.6 °F 29.8 in ESE 8.7 mph 13 mph 90% 0.02 in 5.00 W/m2 unknown
20:14 75.2 °F 71.6 °F 29.9 in East 11.8 mph 16.2 mph 90% 0.02 in 5.00 W/m2 unknown
20:19 75.2 °F 71.6 °F 29.9 in ESE 11.8 mph 17.4 mph 90% 0.02 in 0.00 W/m2 unknown
20:24 73.4 °F 69.8 °F 29.9 in ESE 8.1 mph 16.8 mph 90% 0.02 in 0.00 W/m2 unknown
20:29 73.4 °F 69.8 °F 29.9 in ESE 8.7 mph 11.8 mph 90% 0.02 in 0.00 W/m2 unknown
20:34 73.4 °F 69.8 °F 29.9 in East 7.5 mph 11.8 mph 90% 0.02 in 0.00 W/m2 unknown
20:39 73.4 °F 69.8 °F 29.9 in East 9.3 mph 14.9 mph 90% 0.01 in 0.00 W/m2 unknown
20:44 71.6 °F 68 °F 29.9 in East 8.1 mph 14.9 mph 89% 0 in 0.00 W/m2 unknown
20:49 71.6 °F 68 °F 29.9 in East 8.7 mph 13 mph 89% 0 in 0.00 W/m2 unknown
20:54 71.6 °F 68 °F 29.9 in East 7.5 mph 13 mph 89% 0 in 0.00 W/m2 unknown
20:59 71.6 °F 68 °F 29.9 in East 6.2 mph 8.7 mph 89% 0 in 0.00 W/m2 unknown
21:04 71.6 °F 68 °F 29.9 in ESE 5 mph 8.1 mph 89% 0 in 0.00 W/m2 unknown
21:09 71.6 °F 68 °F 29.9 in ESE 6.2 mph 8.1 mph 89% 0 in 0.00 W/m2 unknown
21:14 71.6 °F 68 °F 29.9 in East 6.8 mph 9.9 mph 89% 0 in 0.00 W/m2 unknown
21:19 71.6 °F 68 °F 29.9 in ESE 6.8 mph 9.9 mph 89% 0 in 0.00 W/m2 unknown
21:24 71.6 °F 68 °F 29.9 in ESE 7.5 mph 11.8 mph 89% 0 in 0.00 W/m2 unknown
21:29 71.6 °F 68 °F 29.9 in ESE 6.8 mph 11.8 mph 88% 0 in 0.00 W/m2 unknown
21:34 71.6 °F 68 °F 29.9 in East 5.6 mph 9.3 mph 87% 0 in 0.00 W/m2 unknown
21:39 71.6 °F 68 °F 29.9 in East 5.6 mph 8.7 mph 87% 0 in 0.00 W/m2 unknown
21:44 71.6 °F 68 °F 29.9 in ESE 6.8 mph 9.3 mph 87% 0 in 0.00 W/m2 unknown
21:49 71.6 °F 68 °F 29.9 in ESE 6.2 mph 8.7 mph 87% 0 in 0.00 W/m2 unknown
21:54 71.6 °F 68 °F 29.9 in East 3.1 mph 6.8 mph 88% 0 in 0.00 W/m2 unknown
21:59 71.6 °F 68 °F 29.9 in ENE 3.7 mph 6.2 mph 88% 0 in 0.00 W/m2 unknown
22:04 71.6 °F 68 °F 29.9 in NE 3.7 mph 6.2 mph 88% 0 in 0.00 W/m2 unknown
22:09 71.6 °F 68 °F 29.9 in NE 3.7 mph 6.2 mph 88% 0 in 0.00 W/m2 unknown
22:14 71.6 °F 68 °F 29.9 in NE 5 mph 6.8 mph 88% 0 in 0.00 W/m2 unknown
22:19 71.6 °F 68 °F 29.9 in ENE 6.2 mph 6.8 mph 88% 0 in 0.00 W/m2 unknown
22:24 71.6 °F 68 °F 29.9 in NE 5 mph 6.8 mph 89% 0 in 0.00 W/m2 unknown
22:29 71.6 °F 68 °F 29.9 in NE 3.7 mph 5 mph 89% 0 in 0.00 W/m2 unknown
22:34 71.6 °F 68 °F 29.9 in NNE 3.1 mph 5 mph 89% 0 in 0.00 W/m2 unknown
22:39 71.6 °F 68 °F 29.9 in NNE 3.7 mph 5 mph 89% 0 in 0.00 W/m2 unknown
22:44 71.6 °F 68 °F 29.9 in NE 3.7 mph 5 mph 90% 0 in 0.00 W/m2 unknown
22:49 71.6 °F 68 °F 29.9 in NE 3.7 mph 6.2 mph 90% 0 in 0.00 W/m2 unknown
22:54 69.8 °F 68 °F 29.9 in ENE 3.1 mph 6.2 mph 90% 0 in 0.00 W/m2 unknown
22:59 69.8 °F 68 °F 29.9 in ENE 3.7 mph 5 mph 90% 0 in 0.00 W/m2 unknown
23:04 69.8 °F 68 °F 29.9 in East 3.1 mph 5 mph 91% 0 in 0.00 W/m2 unknown
23:09 69.8 °F 68 °F 29.9 in ESE 2.5 mph 5 mph 91% 0 in 0.00 W/m2 unknown
23:14 69.8 °F 68 °F 29.9 in East 3.1 mph 5 mph 91% 0 in 0.00 W/m2 unknown
23:19 69.8 °F 68 °F 29.9 in East 1.9 mph 5 mph 91% 0 in 0.00 W/m2 unknown
23:24 69.8 °F 68 °F 29.9 in ESE 1.9 mph 3.7 mph 91% 0 in 0.00 W/m2 unknown
23:29 69.8 °F 68 °F 29.9 in SE 0.6 mph 3.1 mph 91% 0 in 0.00 W/m2 unknown
23:34 69.8 °F 68 °F 29.9 in SE 0.6 mph 1.2 mph 91% 0 in 0.00 W/m2 unknown
23:39 69.8 °F 68 °F 29.9 in SE 1.2 mph 1.2 mph 91% 0 in 0.00 W/m2 unknown
23:44 69.8 °F 68 °F 29.9 in SE 1.9 mph 3.1 mph 91% 0 in 0.00 W/m2 unknown
23:49 69.8 °F 68 °F 29.9 in SE 1.2 mph 3.1 mph 92% 0 in 0.00 W/m2 unknown
23:54 69.8 °F 68 °F 29.9 in SSW 2.5 mph 3.7 mph 92% 0 in 0.00 W/m2 unknown
23:59 69.8 °F 68 °F 29.9 in SW 1.9 mph 3.7 mph 92% 0 in 0.00 W/m2 unknown
Stazione Meteorologica MeteoMincio Rivalta s/M (MN)
Con i complimenti di Weather Underground - 4 mb



METEO PILLOLE
L'uragano più violento
Galveston - Texas
Nel 1900 un uragano spazza l'isola con venti oltre 160 Km/h e provoca un onda alta oltre 6 m. Si valuta che siano morte 8000 persone.
Share

Non seguire questo link o sarai bannato dal sito!